sensor_id;sensor_type;location;lat;lon;timestamp;pressure;altitude;pressure_sealevel;temperature
27715;BMP280;16051;53.024;8.630;2022-08-05T00:00:40;101504.19;;;19.63
27715;BMP280;16051;53.024;8.630;2022-08-05T00:04:42;101506.97;;;19.63
27715;BMP280;16051;53.024;8.630;2022-08-05T00:09:18;101482.00;;;19.65
27715;BMP280;16051;53.024;8.630;2022-08-05T00:13:21;101478.69;;;19.61
27715;BMP280;16051;53.024;8.630;2022-08-05T00:17:23;101462.66;;;19.62
27715;BMP280;16051;53.024;8.630;2022-08-05T00:21:25;101459.34;;;19.58
27715;BMP280;16051;53.024;8.630;2022-08-05T00:25:28;101458.84;;;19.59
27715;BMP280;16051;53.024;8.630;2022-08-05T00:29:31;101461.09;;;19.67
27715;BMP280;16051;53.024;8.630;2022-08-05T00:33:34;101453.19;;;19.71
27715;BMP280;16051;53.024;8.630;2022-08-05T00:37:56;101472.59;;;19.63
27715;BMP280;16051;53.024;8.630;2022-08-05T00:41:59;101442.50;;;19.69
27715;BMP280;16051;53.024;8.630;2022-08-05T00:46:02;101453.47;;;19.61
27715;BMP280;16051;53.024;8.630;2022-08-05T00:50:05;101412.06;;;19.43
27715;BMP280;16051;53.024;8.630;2022-08-05T00:54:07;101391.34;;;19.57
27715;BMP280;16051;53.024;8.630;2022-08-05T00:58:12;101382.78;;;19.39
27715;BMP280;16051;53.024;8.630;2022-08-05T01:02:22;101420.75;;;19.34
27715;BMP280;16051;53.024;8.630;2022-08-05T01:06:24;101436.00;;;19.39
27715;BMP280;16051;53.024;8.630;2022-08-05T01:10:32;101381.03;;;19.30
27715;BMP280;16051;53.024;8.630;2022-08-05T01:14:47;101337.03;;;19.25
27715;BMP280;16051;53.024;8.630;2022-08-05T01:18:57;101294.97;;;19.36
27715;BMP280;16051;53.024;8.630;2022-08-05T01:23:10;101311.81;;;19.25
27715;BMP280;16051;53.024;8.630;2022-08-05T01:27:44;101334.78;;;19.18
27715;BMP280;16051;53.024;8.630;2022-08-05T01:31:52;101326.91;;;19.16
27715;BMP280;16051;53.024;8.630;2022-08-05T01:35:58;101336.94;;;18.90
27715;BMP280;16051;53.024;8.630;2022-08-05T01:40:04;101353.22;;;18.86
27715;BMP280;16051;53.024;8.630;2022-08-05T01:44:23;101369.47;;;18.93
27715;BMP280;16051;53.024;8.630;2022-08-05T01:48:30;101382.72;;;18.92
27715;BMP280;16051;53.024;8.630;2022-08-05T01:52:37;101375.38;;;18.78
27715;BMP280;16051;53.024;8.630;2022-08-05T01:56:43;101415.06;;;18.77
27715;BMP280;16051;53.024;8.630;2022-08-05T02:00:50;101432.38;;;18.75
27715;BMP280;16051;53.024;8.630;2022-08-05T02:04:55;101423.72;;;18.73
27715;BMP280;16051;53.024;8.630;2022-08-05T02:08:59;101416.88;;;18.68
27715;BMP280;16051;53.024;8.630;2022-08-05T02:13:07;101403.63;;;18.75
27715;BMP280;16051;53.024;8.630;2022-08-05T02:17:24;101404.44;;;18.58
27715;BMP280;16051;53.024;8.630;2022-08-05T02:21:36;101412.56;;;18.51
27715;BMP280;16051;53.024;8.630;2022-08-05T02:25:43;101413.31;;;18.40
27715;BMP280;16051;53.024;8.630;2022-08-05T02:29:47;101427.28;;;18.40
27715;BMP280;16051;53.024;8.630;2022-08-05T02:33:57;101430.59;;;18.33
27715;BMP280;16051;53.024;8.630;2022-08-05T02:38:06;101419.41;;;18.28
27715;BMP280;16051;53.024;8.630;2022-08-05T02:42:10;101418.41;;;18.25
27715;BMP280;16051;53.024;8.630;2022-08-05T02:46:15;101414.84;;;18.19
27715;BMP280;16051;53.024;8.630;2022-08-05T02:50:22;101404.16;;;18.12
27715;BMP280;16051;53.024;8.630;2022-08-05T02:54:25;101394.25;;;18.11
27715;BMP280;16051;53.024;8.630;2022-08-05T02:58:29;101398.84;;;18.08
27715;BMP280;16051;53.024;8.630;2022-08-05T03:02:38;101423.72;;;18.06
27715;BMP280;16051;53.024;8.630;2022-08-05T03:06:58;101405.16;;;18.09
27715;BMP280;16051;53.024;8.630;2022-08-05T03:11:00;101410.50;;;18.12
27715;BMP280;16051;53.024;8.630;2022-08-05T03:15:04;101399.31;;;18.12
27715;BMP280;16051;53.024;8.630;2022-08-05T03:19:06;101400.88;;;18.19
27715;BMP280;16051;53.024;8.630;2022-08-05T03:23:11;101395.50;;;18.21
27715;BMP280;16051;53.024;8.630;2022-08-05T03:27:16;101420.16;;;18.28
27715;BMP280;16051;53.024;8.630;2022-08-05T03:31:19;101414.84;;;18.30
27715;BMP280;16051;53.024;8.630;2022-08-05T03:35:21;101417.91;;;18.27
27715;BMP280;16051;53.024;8.630;2022-08-05T03:39:25;101415.34;;;18.29
27715;BMP280;16051;53.024;8.630;2022-08-05T03:43:27;101419.66;;;18.30
27715;BMP280;16051;53.024;8.630;2022-08-05T03:47:31;101411.78;;;18.34
27715;BMP280;16051;53.024;8.630;2022-08-05T03:51:38;101427.03;;;18.33
27715;BMP280;16051;53.024;8.630;2022-08-05T03:55:57;101423.97;;;18.31
27715;BMP280;16051;53.024;8.630;2022-08-05T04:00:07;101428.06;;;18.30
27715;BMP280;16051;53.024;8.630;2022-08-05T04:04:11;101423.50;;;18.27
27715;BMP280;16051;53.024;8.630;2022-08-05T04:08:45;101444.81;;;18.35
27715;BMP280;16051;53.024;8.630;2022-08-05T04:12:50;101449.41;;;18.22
27715;BMP280;16051;53.024;8.630;2022-08-05T04:16:54;101470.25;;;18.26
27715;BMP280;16051;53.024;8.630;2022-08-05T04:20:57;101473.53;;;18.25
27715;BMP280;16051;53.024;8.630;2022-08-05T04:24:59;101442.03;;;18.24
27715;BMP280;16051;53.024;8.630;2022-08-05T04:29:03;101465.16;;;18.30
27715;BMP280;16051;53.024;8.630;2022-08-05T04:33:05;101458.81;;;18.30
27715;BMP280;16051;53.024;8.630;2022-08-05T04:37:16;101448.41;;;18.30
27715;BMP280;16051;53.024;8.630;2022-08-05T04:41:18;101426.53;;;18.40
27715;BMP280;16051;53.024;8.630;2022-08-05T04:45:21;101423.47;;;18.32
27715;BMP280;16051;53.024;8.630;2022-08-05T04:49:25;101409.47;;;18.38
27715;BMP280;16051;53.024;8.630;2022-08-05T04:53:34;101419.16;;;18.31
27715;BMP280;16051;53.024;8.630;2022-08-05T04:57:36;101431.88;;;18.32
27715;BMP280;16051;53.024;8.630;2022-08-05T05:01:39;101450.41;;;18.35
27715;BMP280;16051;53.024;8.630;2022-08-05T05:05:41;101453.47;;;18.32
27715;BMP280;16051;53.024;8.630;2022-08-05T05:09:44;101468.97;;;18.33
27715;BMP280;16051;53.024;8.630;2022-08-05T05:13:46;101479.13;;;18.36
27715;BMP280;16051;53.024;8.630;2022-08-05T05:17:52;101480.94;;;18.44
27715;BMP280;16051;53.024;8.630;2022-08-05T05:21:54;101456.00;;;18.46
27715;BMP280;16051;53.024;8.630;2022-08-05T05:25:56;101437.44;;;18.49
27715;BMP280;16051;53.024;8.630;2022-08-05T05:29:58;101410.25;;;18.72
27715;BMP280;16051;53.024;8.630;2022-08-05T05:34:02;101428.78;;;18.86
27715;BMP280;16051;53.024;8.630;2022-08-05T05:38:04;101442.03;;;18.80
27715;BMP280;16051;53.024;8.630;2022-08-05T05:42:08;101459.56;;;18.75
27715;BMP280;16051;53.024;8.630;2022-08-05T05:46:14;101454.25;;;18.71
27715;BMP280;16051;53.024;8.630;2022-08-05T05:50:18;101437.19;;;18.75
27715;BMP280;16051;53.024;8.630;2022-08-05T05:54:20;101450.41;;;18.74
27715;BMP280;16051;53.024;8.630;2022-08-05T05:58:22;101445.59;;;18.69
27715;BMP280;16051;53.024;8.630;2022-08-05T06:02:24;101452.47;;;18.74
27715;BMP280;16051;53.024;8.630;2022-08-05T06:06:44;101471.56;;;18.70
27715;BMP280;16051;53.024;8.630;2022-08-05T06:10:46;101465.19;;;18.63
27715;BMP280;16051;53.024;8.630;2022-08-05T06:14:48;101456.53;;;18.61
27715;BMP280;16051;53.024;8.630;2022-08-05T06:18:50;101452.22;;;18.66
27715;BMP280;16051;53.024;8.630;2022-08-05T06:22:53;101475.88;;;18.65
27715;BMP280;16051;53.024;8.630;2022-08-05T06:26:56;101484.00;;;18.74
27715;BMP280;16051;53.024;8.630;2022-08-05T06:30:58;101495.94;;;18.63
27715;BMP280;16051;53.024;8.630;2022-08-05T06:35:19;101472.31;;;18.64
27715;BMP280;16051;53.024;8.630;2022-08-05T06:39:22;101466.97;;;18.66
27715;BMP280;16051;53.024;8.630;2022-08-05T06:43:24;101480.19;;;18.60
27715;BMP280;16051;53.024;8.630;2022-08-05T06:47:28;101481.47;;;18.65
27715;BMP280;16051;53.024;8.630;2022-08-05T06:51:31;101477.91;;;18.70
27715;BMP280;16051;53.024;8.630;2022-08-05T06:55:35;101489.84;;;18.65
27715;BMP280;16051;53.024;8.630;2022-08-05T06:59:37;101506.38;;;18.57
27715;BMP280;16051;53.024;8.630;2022-08-05T07:03:43;101523.94;;;18.69
27715;BMP280;16051;53.024;8.630;2022-08-05T07:07:45;101523.69;;;18.61
27715;BMP280;16051;53.024;8.630;2022-08-05T07:11:50;101507.91;;;18.64
27715;BMP280;16051;53.024;8.630;2022-08-05T07:15:52;101517.31;;;18.61
27715;BMP280;16051;53.024;8.630;2022-08-05T07:20:17;101516.03;;;18.67
27715;BMP280;16051;53.024;8.630;2022-08-05T07:24:20;101524.94;;;18.60
27715;BMP280;16051;53.024;8.630;2022-08-05T07:28:23;101543.00;;;18.59
27715;BMP280;16051;53.024;8.630;2022-08-05T07:32:26;101543.75;;;18.60
27715;BMP280;16051;53.024;8.630;2022-08-05T07:36:28;101542.00;;;18.62
27715;BMP280;16051;53.024;8.630;2022-08-05T07:40:32;101533.09;;;18.70
27715;BMP280;16051;53.024;8.630;2022-08-05T07:44:36;101534.34;;;18.63
27715;BMP280;16051;53.024;8.630;2022-08-05T07:48:38;101526.97;;;18.71
27715;BMP280;16051;53.024;8.630;2022-08-05T07:53:09;101526.22;;;18.65
27715;BMP280;16051;53.024;8.630;2022-08-05T07:57:12;101531.81;;;18.65
27715;BMP280;16051;53.024;8.630;2022-08-05T08:01:19;101537.66;;;18.61
27715;BMP280;16051;53.024;8.630;2022-08-05T08:05:25;101523.44;;;18.65
27715;BMP280;16051;53.024;8.630;2022-08-05T08:09:37;101522.69;;;18.59
27715;BMP280;16051;53.024;8.630;2022-08-05T08:13:40;101532.06;;;18.61
27715;BMP280;16051;53.024;8.630;2022-08-05T08:17:44;101537.41;;;18.54
27715;BMP280;16051;53.024;8.630;2022-08-05T08:21:58;101529.78;;;18.54
27715;BMP280;16051;53.024;8.630;2022-08-05T08:26:00;101526.72;;;18.58
27715;BMP280;16051;53.024;8.630;2022-08-05T08:30:03;101532.03;;;18.50
27715;BMP280;16051;53.024;8.630;2022-08-05T08:34:06;101538.44;;;18.51
27715;BMP280;16051;53.024;8.630;2022-08-05T08:38:10;101564.84;;;18.50
27715;BMP280;16051;53.024;8.630;2022-08-05T08:42:13;101580.66;;;18.58
27715;BMP280;16051;53.024;8.630;2022-08-05T08:46:16;101558.78;;;18.57
27715;BMP280;16051;53.024;8.630;2022-08-05T08:50:21;101555.72;;;18.55
27715;BMP280;16051;53.024;8.630;2022-08-05T08:54:24;101562.56;;;18.59
27715;BMP280;16051;53.024;8.630;2022-08-05T08:58:46;101554.94;;;18.60
27715;BMP280;16051;53.024;8.630;2022-08-05T09:02:49;101560.56;;;18.65
27715;BMP280;16051;53.024;8.630;2022-08-05T09:06:56;101565.38;;;18.59
27715;BMP280;16051;53.024;8.630;2022-08-05T09:10:58;101561.31;;;18.60
27715;BMP280;16051;53.024;8.630;2022-08-05T09:15:03;101551.41;;;18.65
27715;BMP280;16051;53.024;8.630;2022-08-05T09:19:06;101553.44;;;18.70
27715;BMP280;16051;53.024;8.630;2022-08-05T09:23:13;101562.06;;;18.66
27715;BMP280;16051;53.024;8.630;2022-08-05T09:27:31;101557.53;;;18.69
27715;BMP280;16051;53.024;8.630;2022-08-05T09:31:34;101551.91;;;18.69
27715;BMP280;16051;53.024;8.630;2022-08-05T09:35:36;101556.00;;;18.62
27715;BMP280;16051;53.024;8.630;2022-08-05T09:39:45;101554.97;;;18.65
27715;BMP280;16051;53.024;8.630;2022-08-05T09:43:47;101567.91;;;18.63
27715;BMP280;16051;53.024;8.630;2022-08-05T09:47:49;101556.00;;;18.74
27715;BMP280;16051;53.024;8.630;2022-08-05T09:52:15;101562.84;;;18.73
27715;BMP280;16051;53.024;8.630;2022-08-05T09:56:26;101580.16;;;18.77
27715;BMP280;16051;53.024;8.630;2022-08-05T10:00:28;101575.06;;;18.81
27715;BMP280;16051;53.024;8.630;2022-08-05T10:04:35;101582.72;;;18.80
27715;BMP280;16051;53.024;8.630;2022-08-05T10:08:40;101591.09;;;18.80
27715;BMP280;16051;53.024;8.630;2022-08-05T10:12:47;101586.53;;;18.77
27715;BMP280;16051;53.024;8.630;2022-08-05T10:17:12;101580.41;;;18.79
27715;BMP280;16051;53.024;8.630;2022-08-05T10:21:14;101587.28;;;18.83
27715;BMP280;16051;53.024;8.630;2022-08-05T10:25:18;101587.03;;;18.87
27715;BMP280;16051;53.024;8.630;2022-08-05T10:29:21;101586.78;;;18.90
27715;BMP280;16051;53.024;8.630;2022-08-05T10:33:27;101586.53;;;18.77
27715;BMP280;16051;53.024;8.630;2022-08-05T10:37:31;101585.50;;;18.80
27715;BMP280;16051;53.024;8.630;2022-08-05T10:41:45;101591.63;;;18.95
27715;BMP280;16051;53.024;8.630;2022-08-05T10:45:57;101614.00;;;19.12
27715;BMP280;16051;53.024;8.630;2022-08-05T10:50:05;101615.50;;;19.18
27715;BMP280;16051;53.024;8.630;2022-08-05T10:54:12;101616.78;;;19.12
27715;BMP280;16051;53.024;8.630;2022-08-05T10:58:21;101634.88;;;19.05
27715;BMP280;16051;53.024;8.630;2022-08-05T11:02:25;101627.97;;;19.06
27715;BMP280;16051;53.024;8.630;2022-08-05T11:07:06;101632.06;;;19.11
27715;BMP280;16051;53.024;8.630;2022-08-05T11:11:32;101633.34;;;19.27
27715;BMP280;16051;53.024;8.630;2022-08-05T11:15:36;101641.22;;;19.50
27715;BMP280;16051;53.024;8.630;2022-08-05T11:20:00;101642.44;;;19.72
27715;BMP280;16051;53.024;8.630;2022-08-05T11:24:07;101656.16;;;19.92
27715;BMP280;16051;53.024;8.630;2022-08-05T11:28:42;101648.47;;;20.09
27715;BMP280;16051;53.024;8.630;2022-08-05T11:32:45;101641.03;;;20.11
27715;BMP280;16051;53.024;8.630;2022-08-05T11:36:51;101660.41;;;20.15
27715;BMP280;16051;53.024;8.630;2022-08-05T11:41:01;101661.41;;;20.29
27715;BMP280;16051;53.024;8.630;2022-08-05T11:45:05;101671.31;;;20.35
27715;BMP280;16051;53.024;8.630;2022-08-05T11:49:12;101666.72;;;20.43
27715;BMP280;16051;53.024;8.630;2022-08-05T11:53:16;101674.53;;;20.56
27715;BMP280;16051;53.024;8.630;2022-08-05T11:57:46;101675.34;;;20.51
27715;BMP280;16051;53.024;8.630;2022-08-05T12:01:58;101675.88;;;20.85
27715;BMP280;16051;53.024;8.630;2022-08-05T12:06:02;101693.56;;;20.74
27715;BMP280;16051;53.024;8.630;2022-08-05T12:10:11;101690.53;;;20.72
27715;BMP280;16051;53.024;8.630;2022-08-05T12:14:14;101685.56;;;20.89
27715;BMP280;16051;53.024;8.630;2022-08-05T12:18:17;101690.00;;;21.09
27715;BMP280;16051;53.024;8.630;2022-08-05T12:22:26;101686.25;;;21.66
27715;BMP280;16051;53.024;8.630;2022-08-05T12:26:35;101678.81;;;22.36
27715;BMP280;16051;53.024;8.630;2022-08-05T12:30:37;101677.75;;;22.57
27715;BMP280;16051;53.024;8.630;2022-08-05T12:34:42;101683.59;;;22.41
27715;BMP280;16051;53.024;8.630;2022-08-05T12:39:03;101705.22;;;22.08
27715;BMP280;16051;53.024;8.630;2022-08-05T12:43:07;101674.22;;;21.90
27715;BMP280;16051;53.024;8.630;2022-08-05T12:47:10;101686.56;;;21.81
27715;BMP280;16051;53.024;8.630;2022-08-05T12:51:14;101696.91;;;21.73
27715;BMP280;16051;53.024;8.630;2022-08-05T12:55:20;101695.47;;;21.85
27715;BMP280;16051;53.024;8.630;2022-08-05T12:59:26;101693.41;;;21.91
27715;BMP280;16051;53.024;8.630;2022-08-05T13:03:28;101690.81;;;21.69
27715;BMP280;16051;53.024;8.630;2022-08-05T13:07:31;101687.22;;;21.69
27715;BMP280;16051;53.024;8.630;2022-08-05T13:11:38;101690.94;;;21.52
27715;BMP280;16051;53.024;8.630;2022-08-05T13:15:48;101690.53;;;21.43
27715;BMP280;16051;53.024;8.630;2022-08-05T13:20:03;101689.56;;;21.35
27715;BMP280;16051;53.024;8.630;2022-08-05T13:24:06;101693.00;;;21.22
27715;BMP280;16051;53.024;8.630;2022-08-05T13:28:10;101691.25;;;21.19
27715;BMP280;16051;53.024;8.630;2022-08-05T13:32:14;101696.47;;;20.98
27715;BMP280;16051;53.024;8.630;2022-08-05T13:36:16;101698.19;;;21.07
27715;BMP280;16051;53.024;8.630;2022-08-05T13:40:36;101694.88;;;21.08
27715;BMP280;16051;53.024;8.630;2022-08-05T13:44:38;101702.50;;;21.14
27715;BMP280;16051;53.024;8.630;2022-08-05T13:48:42;101712.91;;;21.54
27715;BMP280;16051;53.024;8.630;2022-08-05T13:52:44;101716.41;;;22.14
27715;BMP280;16051;53.024;8.630;2022-08-05T13:56:46;101720.88;;;22.66
27715;BMP280;16051;53.024;8.630;2022-08-05T14:01:06;101730.66;;;23.34
27715;BMP280;16051;53.024;8.630;2022-08-05T14:05:09;101743.97;;;23.33
27715;BMP280;16051;53.024;8.630;2022-08-05T14:09:11;101745.34;;;22.95
27715;BMP280;16051;53.024;8.630;2022-08-05T14:13:13;101750.53;;;23.41
27715;BMP280;16051;53.024;8.630;2022-08-05T14:17:16;101756.50;;;23.83
27715;BMP280;16051;53.024;8.630;2022-08-05T14:21:24;101767.47;;;23.99
27715;BMP280;16051;53.024;8.630;2022-08-05T14:25:26;101773.63;;;23.72
27715;BMP280;16051;53.024;8.630;2022-08-05T14:29:28;101772.44;;;23.80
27715;BMP280;16051;53.024;8.630;2022-08-05T14:33:30;101791.38;;;24.12
27715;BMP280;16051;53.024;8.630;2022-08-05T14:37:35;101793.13;;;24.28
27715;BMP280;16051;53.024;8.630;2022-08-05T14:41:37;101801.59;;;24.15
27715;BMP280;16051;53.024;8.630;2022-08-05T14:45:58;101805.81;;;24.08
27715;BMP280;16051;53.024;8.630;2022-08-05T14:50:01;101800.94;;;23.77
27715;BMP280;16051;53.024;8.630;2022-08-05T14:54:05;101813.31;;;23.23
27715;BMP280;16051;53.024;8.630;2022-08-05T14:58:08;101824.81;;;23.25
27715;BMP280;16051;53.024;8.630;2022-08-05T15:02:10;101825.97;;;23.17
27715;BMP280;16051;53.024;8.630;2022-08-05T15:06:12;101838.75;;;23.18
27715;BMP280;16051;53.024;8.630;2022-08-05T15:10:16;101838.22;;;23.19
27715;BMP280;16051;53.024;8.630;2022-08-05T15:14:18;101841.00;;;23.38
27715;BMP280;16051;53.024;8.630;2022-08-05T15:18:21;101851.09;;;23.15
27715;BMP280;16051;53.024;8.630;2022-08-05T15:22:24;101859.16;;;23.24
27715;BMP280;16051;53.024;8.630;2022-08-05T15:26:28;101863.03;;;23.21
27715;BMP280;16051;53.024;8.630;2022-08-05T15:30:31;101868.69;;;23.21
27715;BMP280;16051;53.024;8.630;2022-08-05T15:34:34;101884.50;;;23.05
27715;BMP280;16051;53.024;8.630;2022-08-05T15:38:36;101877.06;;;23.08
27715;BMP280;16051;53.024;8.630;2022-08-05T15:42:39;101883.97;;;23.07
27715;BMP280;16051;53.024;8.630;2022-08-05T15:46:43;101888.81;;;22.87
27715;BMP280;16051;53.024;8.630;2022-08-05T15:50:46;101891.53;;;22.74
27715;BMP280;16051;53.024;8.630;2022-08-05T15:54:48;101898.16;;;22.52
27715;BMP280;16051;53.024;8.630;2022-08-05T15:58:53;101906.28;;;22.56
27715;BMP280;16051;53.024;8.630;2022-08-05T16:02:55;101912.31;;;22.41
27715;BMP280;16051;53.024;8.630;2022-08-05T16:06:58;101900.13;;;22.33
27715;BMP280;16051;53.024;8.630;2022-08-05T16:11:01;101902.44;;;22.29
27715;BMP280;16051;53.024;8.630;2022-08-05T16:15:06;101911.09;;;22.37
27715;BMP280;16051;53.024;8.630;2022-08-05T16:19:09;101922.59;;;22.39
27715;BMP280;16051;53.024;8.630;2022-08-05T16:23:11;101916.91;;;22.15
27715;BMP280;16051;53.024;8.630;2022-08-05T16:27:13;101924.63;;;22.08
27715;BMP280;16051;53.024;8.630;2022-08-05T16:31:17;101938.31;;;21.88
27715;BMP280;16051;53.024;8.630;2022-08-05T16:35:19;101944.88;;;21.60
27715;BMP280;16051;53.024;8.630;2022-08-05T16:39:37;101946.72;;;21.47
27715;BMP280;16051;53.024;8.630;2022-08-05T16:43:40;101958.75;;;21.42
27715;BMP280;16051;53.024;8.630;2022-08-05T16:47:43;101953.91;;;21.42
27715;BMP280;16051;53.024;8.630;2022-08-05T16:51:45;101959.25;;;21.46
27715;BMP280;16051;53.024;8.630;2022-08-05T16:55:47;101961.31;;;21.40
27715;BMP280;16051;53.024;8.630;2022-08-05T16:59:50;101959.06;;;21.27
27715;BMP280;16051;53.024;8.630;2022-08-05T17:03:54;101969.38;;;20.97
27715;BMP280;16051;53.024;8.630;2022-08-05T17:07:56;101967.63;;;20.72
27715;BMP280;16051;53.024;8.630;2022-08-05T17:11:58;101967.88;;;20.74
27715;BMP280;16051;53.024;8.630;2022-08-05T17:16:01;101976.06;;;20.60
27715;BMP280;16051;53.024;8.630;2022-08-05T17:20:08;101967.66;;;20.44
27715;BMP280;16051;53.024;8.630;2022-08-05T17:24:10;101975.03;;;20.30
27715;BMP280;16051;53.024;8.630;2022-08-05T17:28:13;101974.03;;;20.39
27715;BMP280;16051;53.024;8.630;2022-08-05T17:32:15;101977.03;;;20.19
27715;BMP280;16051;53.024;8.630;2022-08-05T17:36:19;101984.69;;;20.07
27715;BMP280;16051;53.024;8.630;2022-08-05T17:40:21;101986.47;;;20.04
27715;BMP280;16051;53.024;8.630;2022-08-05T17:44:34;101996.88;;;19.82
27715;BMP280;16051;53.024;8.630;2022-08-05T17:48:36;102002.75;;;19.84
27715;BMP280;16051;53.024;8.630;2022-08-05T17:52:39;102001.69;;;19.76
27715;BMP280;16051;53.024;8.630;2022-08-05T17:56:41;102004.75;;;19.72
27715;BMP280;16051;53.024;8.630;2022-08-05T18:00:45;102015.66;;;19.64
27715;BMP280;16051;53.024;8.630;2022-08-05T18:04:47;102019.47;;;19.56
27715;BMP280;16051;53.024;8.630;2022-08-05T18:08:51;102027.06;;;19.44
27715;BMP280;16051;53.024;8.630;2022-08-05T18:12:53;102033.81;;;19.27
27715;BMP280;16051;53.024;8.630;2022-08-05T18:16:59;102036.06;;;19.23
27715;BMP280;16051;53.024;8.630;2022-08-05T18:21:01;102031.41;;;19.08
27715;BMP280;16051;53.024;8.630;2022-08-05T18:25:06;102041.53;;;19.00
27715;BMP280;16051;53.024;8.630;2022-08-05T18:29:08;102048.13;;;18.97
27715;BMP280;16051;53.024;8.630;2022-08-05T18:33:11;102053.41;;;18.90
27715;BMP280;16051;53.024;8.630;2022-08-05T18:37:13;102055.41;;;18.84
27715;BMP280;16051;53.024;8.630;2022-08-05T18:41:16;102051.78;;;18.78
27715;BMP280;16051;53.024;8.630;2022-08-05T18:45:19;102052.78;;;18.75
27715;BMP280;16051;53.024;8.630;2022-08-05T18:49:21;102060.09;;;18.66
27715;BMP280;16051;53.024;8.630;2022-08-05T18:53:48;102056.72;;;18.57
27715;BMP280;16051;53.024;8.630;2022-08-05T18:57:52;102071.22;;;18.55
27715;BMP280;16051;53.024;8.630;2022-08-05T19:01:58;102078.91;;;18.40
27715;BMP280;16051;53.024;8.630;2022-08-05T19:06:00;102080.84;;;18.29
27715;BMP280;16051;53.024;8.630;2022-08-05T19:10:19;102091.25;;;18.28
27715;BMP280;16051;53.024;8.630;2022-08-05T19:14:23;102085.75;;;18.13
27715;BMP280;16051;53.024;8.630;2022-08-05T19:18:25;102101.63;;;18.02
27715;BMP280;16051;53.024;8.630;2022-08-05T19:22:28;102107.84;;;17.91
27715;BMP280;16051;53.024;8.630;2022-08-05T19:26:30;102119.66;;;17.81
27715;BMP280;16051;53.024;8.630;2022-08-05T19:30:39;102120.56;;;17.72
27715;BMP280;16051;53.024;8.630;2022-08-05T19:34:41;102130.31;;;17.62
27715;BMP280;16051;53.024;8.630;2022-08-05T19:38:53;102139.84;;;17.55
27715;BMP280;16051;53.024;8.630;2022-08-05T19:42:55;102152.22;;;17.49
27715;BMP280;16051;53.024;8.630;2022-08-05T19:47:06;102139.63;;;17.39
27715;BMP280;16051;53.024;8.630;2022-08-05T19:51:42;102151.78;;;17.21
27715;BMP280;16051;53.024;8.630;2022-08-05T19:55:52;102159.22;;;17.09
27715;BMP280;16051;53.024;8.630;2022-08-05T20:00:01;102165.44;;;17.04
27715;BMP280;16051;53.024;8.630;2022-08-05T20:04:05;102171.72;;;16.99
27715;BMP280;16051;53.024;8.630;2022-08-05T20:08:12;102175.19;;;16.94
27715;BMP280;16051;53.024;8.630;2022-08-05T20:12:24;102176.22;;;16.82
27715;BMP280;16051;53.024;8.630;2022-08-05T20:16:26;102183.47;;;16.74
27715;BMP280;16051;53.024;8.630;2022-08-05T20:20:29;102186.91;;;16.69
27715;BMP280;16051;53.024;8.630;2022-08-05T20:24:37;102186.63;;;16.67
27715;BMP280;16051;53.024;8.630;2022-08-05T20:28:39;102191.03;;;16.59
27715;BMP280;16051;53.024;8.630;2022-08-05T20:32:53;102200.78;;;16.54
27715;BMP280;16051;53.024;8.630;2022-08-05T20:37:02;102207.22;;;16.46
27715;BMP280;16051;53.024;8.630;2022-08-05T20:41:07;102216.00;;;16.30
27715;BMP280;16051;53.024;8.630;2022-08-05T20:45:26;102211.41;;;16.27
27715;BMP280;16051;53.024;8.630;2022-08-05T20:49:34;102218.69;;;16.24
27715;BMP280;16051;53.024;8.630;2022-08-05T20:53:37;102215.78;;;16.18
27715;BMP280;16051;53.024;8.630;2022-08-05T20:57:40;102233.47;;;16.15
27715;BMP280;16051;53.024;8.630;2022-08-05T21:01:42;102236.78;;;16.05
27715;BMP280;16051;53.024;8.630;2022-08-05T21:05:44;102244.06;;;16.02
27715;BMP280;16051;53.024;8.630;2022-08-05T21:09:47;102248.44;;;15.94
27715;BMP280;16051;53.024;8.630;2022-08-05T21:13:51;102245.84;;;15.91
27715;BMP280;16051;53.024;8.630;2022-08-05T21:17:53;102256.53;;;15.83
27715;BMP280;16051;53.024;8.630;2022-08-05T21:21:55;102254.72;;;15.80
27715;BMP280;16051;53.024;8.630;2022-08-05T21:25:58;102259.69;;;15.76
27715;BMP280;16051;53.024;8.630;2022-08-05T21:30:01;102261.72;;;15.66
27715;BMP280;16051;53.024;8.630;2022-08-05T21:34:03;102259.13;;;15.54
27715;BMP280;16051;53.024;8.630;2022-08-05T21:38:05;102262.56;;;15.40
27715;BMP280;16051;53.024;8.630;2022-08-05T21:42:11;102267.84;;;15.19
27715;BMP280;16051;53.024;8.630;2022-08-05T21:46:13;102277.75;;;15.02
27715;BMP280;16051;53.024;8.630;2022-08-05T21:50:15;102277.78;;;14.93
27715;BMP280;16051;53.024;8.630;2022-08-05T21:54:17;102277.75;;;14.84
27715;BMP280;16051;53.024;8.630;2022-08-05T21:58:21;102275.13;;;14.81
27715;BMP280;16051;53.024;8.630;2022-08-05T22:02:23;102272.50;;;14.77
27715;BMP280;16051;53.024;8.630;2022-08-05T22:06:25;102281.78;;;14.83
27715;BMP280;16051;53.024;8.630;2022-08-05T22:10:27;102283.34;;;14.75
27715;BMP280;16051;53.024;8.630;2022-08-05T22:14:31;102283.63;;;14.77
27715;BMP280;16051;53.024;8.630;2022-08-05T22:18:34;102266.81;;;14.71
27715;BMP280;16051;53.024;8.630;2022-08-05T22:22:36;102275.31;;;14.68
27715;BMP280;16051;53.024;8.630;2022-08-05T22:26:53;102285.47;;;14.62
27715;BMP280;16051;53.024;8.630;2022-08-05T22:31:13;102285.34;;;14.56
27715;BMP280;16051;53.024;8.630;2022-08-05T22:35:16;102289.50;;;14.52
27715;BMP280;16051;53.024;8.630;2022-08-05T22:39:18;102289.00;;;14.35
27715;BMP280;16051;53.024;8.630;2022-08-05T22:43:20;102304.22;;;14.21
27715;BMP280;16051;53.024;8.630;2022-08-05T22:47:24;102303.09;;;14.10
27715;BMP280;16051;53.024;8.630;2022-08-05T22:51:26;102296.16;;;14.14
27715;BMP280;16051;53.024;8.630;2022-08-05T22:55:28;102304.19;;;14.12
27715;BMP280;16051;53.024;8.630;2022-08-05T22:59:30;102308.69;;;14.19
27715;BMP280;16051;53.024;8.630;2022-08-05T23:03:34;102311.94;;;14.17
27715;BMP280;16051;53.024;8.630;2022-08-05T23:07:36;102311.75;;;14.12
27715;BMP280;16051;53.024;8.630;2022-08-05T23:11:38;102317.59;;;14.05
27715;BMP280;16051;53.024;8.630;2022-08-05T23:15:40;102316.66;;;13.99